sensor_id;sensor_type;location;lat;lon;timestamp;P1;durP1;ratioP1;P2;durP2;ratioP2
55417;SDS011;41287;47.554;7.844;2023-02-28T00:01:23;0.82;;;0.70;;
55417;SDS011;41287;47.554;7.844;2023-02-28T00:03:49;0.80;;;0.70;;
55417;SDS011;41287;47.554;7.844;2023-02-28T00:06:14;1.88;;;0.85;;
55417;SDS011;41287;47.554;7.844;2023-02-28T00:08:40;1.60;;;0.80;;
55417;SDS011;41287;47.554;7.844;2023-02-28T00:11:07;1.08;;;0.80;;
55417;SDS011;41287;47.554;7.844;2023-02-28T00:13:35;0.82;;;0.73;;
55417;SDS011;41287;47.554;7.844;2023-02-28T00:16:03;0.88;;;0.68;;
55417;SDS011;41287;47.554;7.844;2023-02-28T00:18:31;0.80;;;0.70;;
55417;SDS011;41287;47.554;7.844;2023-02-28T00:20:58;0.90;;;0.75;;
55417;SDS011;41287;47.554;7.844;2023-02-28T00:23:24;0.80;;;0.70;;
55417;SDS011;41287;47.554;7.844;2023-02-28T00:25:50;0.85;;;0.75;;
55417;SDS011;41287;47.554;7.844;2023-02-28T00:28:18;1.17;;;0.90;;
55417;SDS011;41287;47.554;7.844;2023-02-28T00:30:46;0.75;;;0.60;;
55417;SDS011;41287;47.554;7.844;2023-02-28T00:33:12;0.60;;;0.60;;
55417;SDS011;41287;47.554;7.844;2023-02-28T00:35:37;0.43;;;0.43;;
55417;SDS011;41287;47.554;7.844;2023-02-28T00:38:03;1.33;;;0.80;;
55417;SDS011;41287;47.554;7.844;2023-02-28T00:40:28;0.70;;;0.60;;
55417;SDS011;41287;47.554;7.844;2023-02-28T00:42:54;0.90;;;0.60;;
55417;SDS011;41287;47.554;7.844;2023-02-28T00:45:20;0.88;;;0.70;;
55417;SDS011;41287;47.554;7.844;2023-02-28T00:47:47;1.13;;;0.80;;
55417;SDS011;41287;47.554;7.844;2023-02-28T00:50:15;0.82;;;0.70;;
55417;SDS011;41287;47.554;7.844;2023-02-28T00:52:42;1.15;;;0.85;;
55417;SDS011;41287;47.554;7.844;2023-02-28T00:55:10;0.70;;;0.70;;
55417;SDS011;41287;47.554;7.844;2023-02-28T00:57:35;0.90;;;0.80;;
55417;SDS011;41287;47.554;7.844;2023-02-28T01:00:01;0.95;;;0.80;;
55417;SDS011;41287;47.554;7.844;2023-02-28T01:02:27;1.05;;;0.77;;
55417;SDS011;41287;47.554;7.844;2023-02-28T01:04:54;0.80;;;0.80;;
55417;SDS011;41287;47.554;7.844;2023-02-28T01:07:21;0.73;;;0.70;;
55417;SDS011;41287;47.554;7.844;2023-02-28T01:09:47;0.75;;;0.60;;
55417;SDS011;41287;47.554;7.844;2023-02-28T01:12:14;1.42;;;0.88;;
55417;SDS011;41287;47.554;7.844;2023-02-28T01:14:40;1.23;;;0.90;;
55417;SDS011;41287;47.554;7.844;2023-02-28T01:17:05;0.65;;;0.65;;
55417;SDS011;41287;47.554;7.844;2023-02-28T01:19:31;1.17;;;0.77;;
55417;SDS011;41287;47.554;7.844;2023-02-28T01:22:02;0.95;;;0.80;;
55417;SDS011;41287;47.554;7.844;2023-02-28T01:24:29;1.05;;;0.77;;
55417;SDS011;41287;47.554;7.844;2023-02-28T01:26:54;1.05;;;0.90;;
55417;SDS011;41287;47.554;7.844;2023-02-28T01:29:21;1.15;;;0.77;;
55417;SDS011;41287;47.554;7.844;2023-02-28T01:31:46;0.70;;;0.68;;
55417;SDS011;41287;47.554;7.844;2023-02-28T01:34:12;1.20;;;0.60;;
55417;SDS011;41287;47.554;7.844;2023-02-28T01:36:37;0.98;;;0.80;;
55417;SDS011;41287;47.554;7.844;2023-02-28T01:39:03;0.63;;;0.63;;
55417;SDS011;41287;47.554;7.844;2023-02-28T01:41:29;0.70;;;0.70;;
55417;SDS011;41287;47.554;7.844;2023-02-28T01:43:57;0.90;;;0.70;;
55417;SDS011;41287;47.554;7.844;2023-02-28T01:46:28;0.52;;;0.52;;
55417;SDS011;41287;47.554;7.844;2023-02-28T01:48:56;1.92;;;0.82;;
55417;SDS011;41287;47.554;7.844;2023-02-28T01:51:28;0.80;;;0.65;;
55417;SDS011;41287;47.554;7.844;2023-02-28T01:54:01;0.52;;;0.52;;
55417;SDS011;41287;47.554;7.844;2023-02-28T01:56:32;1.45;;;0.85;;
55417;SDS011;41287;47.554;7.844;2023-02-28T01:59:00;1.00;;;0.90;;
55417;SDS011;41287;47.554;7.844;2023-02-28T02:01:27;0.82;;;0.80;;
55417;SDS011;41287;47.554;7.844;2023-02-28T02:03:57;0.68;;;0.68;;
55417;SDS011;41287;47.554;7.844;2023-02-28T02:06:30;1.00;;;0.90;;
55417;SDS011;41287;47.554;7.844;2023-02-28T02:09:00;0.85;;;0.70;;
55417;SDS011;41287;47.554;7.844;2023-02-28T02:11:26;1.13;;;0.80;;
55417;SDS011;41287;47.554;7.844;2023-02-28T02:14:17;1.10;;;0.75;;
55417;SDS011;41287;47.554;7.844;2023-02-28T02:17:14;1.10;;;0.70;;
55417;SDS011;41287;47.554;7.844;2023-02-28T02:20:03;0.70;;;0.60;;
55417;SDS011;41287;47.554;7.844;2023-02-28T02:25:19;0.95;;;0.80;;
55417;SDS011;41287;47.554;7.844;2023-02-28T02:31:20;0.68;;;0.65;;
55417;SDS011;41287;47.554;7.844;2023-02-28T02:36:49;0.80;;;0.60;;
55417;SDS011;41287;47.554;7.844;2023-02-28T02:39:29;0.73;;;0.65;;
55417;SDS011;41287;47.554;7.844;2023-02-28T02:42:02;1.00;;;0.70;;
55417;SDS011;41287;47.554;7.844;2023-02-28T02:44:40;0.98;;;0.80;;
55417;SDS011;41287;47.554;7.844;2023-02-28T02:47:19;0.75;;;0.68;;
55417;SDS011;41287;47.554;7.844;2023-02-28T02:49:52;1.10;;;0.90;;
55417;SDS011;41287;47.554;7.844;2023-02-28T02:52:22;0.70;;;0.70;;
55417;SDS011;41287;47.554;7.844;2023-02-28T02:54:52;0.73;;;0.68;;
55417;SDS011;41287;47.554;7.844;2023-02-28T02:57:23;0.82;;;0.80;;
55417;SDS011;41287;47.554;7.844;2023-02-28T02:59:55;0.90;;;0.70;;
55417;SDS011;41287;47.554;7.844;2023-02-28T03:02:22;0.77;;;0.60;;
55417;SDS011;41287;47.554;7.844;2023-02-28T03:04:50;0.70;;;0.70;;
55417;SDS011;41287;47.554;7.844;2023-02-28T03:07:18;0.70;;;0.60;;
55417;SDS011;41287;47.554;7.844;2023-02-28T03:09:53;0.70;;;0.70;;
55417;SDS011;41287;47.554;7.844;2023-02-28T03:12:22;0.80;;;0.75;;
55417;SDS011;41287;47.554;7.844;2023-02-28T03:14:55;0.98;;;0.77;;
55417;SDS011;41287;47.554;7.844;2023-02-28T03:20:26;1.45;;;0.80;;
55417;SDS011;41287;47.554;7.844;2023-02-28T03:23:07;1.65;;;0.85;;
55417;SDS011;41287;47.554;7.844;2023-02-28T03:26:01;0.82;;;0.70;;
55417;SDS011;41287;47.554;7.844;2023-02-28T03:31:23;0.82;;;0.70;;
55417;SDS011;41287;47.554;7.844;2023-02-28T03:34:06;0.60;;;0.60;;
55417;SDS011;41287;47.554;7.844;2023-02-28T03:36:37;0.60;;;0.60;;
55417;SDS011;41287;47.554;7.844;2023-02-28T03:39:09;0.70;;;0.70;;
55417;SDS011;41287;47.554;7.844;2023-02-28T03:42:00;0.70;;;0.60;;
55417;SDS011;41287;47.554;7.844;2023-02-28T03:44:32;0.95;;;0.70;;
55417;SDS011;41287;47.554;7.844;2023-02-28T03:47:07;1.05;;;0.70;;
55417;SDS011;41287;47.554;7.844;2023-02-28T03:49:55;0.85;;;0.70;;
55417;SDS011;41287;47.554;7.844;2023-02-28T03:52:30;1.33;;;0.80;;
55417;SDS011;41287;47.554;7.844;2023-02-28T03:55:00;0.75;;;0.60;;
55417;SDS011;41287;47.554;7.844;2023-02-28T03:57:33;0.65;;;0.65;;
55417;SDS011;41287;47.554;7.844;2023-02-28T04:00:10;0.85;;;0.65;;
55417;SDS011;41287;47.554;7.844;2023-02-28T04:02:40;0.70;;;0.68;;
55417;SDS011;41287;47.554;7.844;2023-02-28T04:05:06;0.70;;;0.63;;
55417;SDS011;41287;47.554;7.844;2023-02-28T04:07:32;0.70;;;0.60;;
55417;SDS011;41287;47.554;7.844;2023-02-28T04:09:58;0.70;;;0.70;;
55417;SDS011;41287;47.554;7.844;2023-02-28T04:12:24;1.33;;;0.88;;
55417;SDS011;41287;47.554;7.844;2023-02-28T04:14:50;1.05;;;0.77;;
55417;SDS011;41287;47.554;7.844;2023-02-28T04:17:16;0.70;;;0.60;;
55417;SDS011;41287;47.554;7.844;2023-02-28T04:19:43;0.90;;;0.70;;
55417;SDS011;41287;47.554;7.844;2023-02-28T04:22:09;0.80;;;0.60;;
55417;SDS011;41287;47.554;7.844;2023-02-28T04:24:34;0.85;;;0.60;;
55417;SDS011;41287;47.554;7.844;2023-02-28T04:27:06;0.90;;;0.70;;
55417;SDS011;41287;47.554;7.844;2023-02-28T04:29:31;0.70;;;0.70;;
55417;SDS011;41287;47.554;7.844;2023-02-28T04:31:57;0.63;;;0.63;;
55417;SDS011;41287;47.554;7.844;2023-02-28T04:34:24;0.80;;;0.55;;
55417;SDS011;41287;47.554;7.844;2023-02-28T04:36:55;1.02;;;0.63;;
55417;SDS011;41287;47.554;7.844;2023-02-28T04:39:22;0.80;;;0.70;;
55417;SDS011;41287;47.554;7.844;2023-02-28T04:41:48;1.08;;;0.70;;
55417;SDS011;41287;47.554;7.844;2023-02-28T04:44:14;0.88;;;0.80;;
55417;SDS011;41287;47.554;7.844;2023-02-28T04:46:40;0.60;;;0.60;;
55417;SDS011;41287;47.554;7.844;2023-02-28T04:49:06;0.68;;;0.60;;
55417;SDS011;41287;47.554;7.844;2023-02-28T04:51:33;0.70;;;0.70;;
55417;SDS011;41287;47.554;7.844;2023-02-28T04:54:00;0.57;;;0.57;;
55417;SDS011;41287;47.554;7.844;2023-02-28T04:56:25;0.70;;;0.70;;
55417;SDS011;41287;47.554;7.844;2023-02-28T04:58:51;1.10;;;0.60;;
55417;SDS011;41287;47.554;7.844;2023-02-28T05:01:21;0.60;;;0.60;;
55417;SDS011;41287;47.554;7.844;2023-02-28T05:03:49;0.90;;;0.70;;
55417;SDS011;41287;47.554;7.844;2023-02-28T05:06:15;0.63;;;0.60;;
55417;SDS011;41287;47.554;7.844;2023-02-28T05:08:42;0.77;;;0.70;;
55417;SDS011;41287;47.554;7.844;2023-02-28T05:11:20;1.35;;;0.95;;
55417;SDS011;41287;47.554;7.844;2023-02-28T05:13:51;0.55;;;0.55;;
55417;SDS011;41287;47.554;7.844;2023-02-28T05:16:17;0.82;;;0.65;;
55417;SDS011;41287;47.554;7.844;2023-02-28T05:18:43;1.10;;;0.80;;
55417;SDS011;41287;47.554;7.844;2023-02-28T05:21:20;0.68;;;0.68;;
55417;SDS011;41287;47.554;7.844;2023-02-28T05:23:50;0.60;;;0.60;;
55417;SDS011;41287;47.554;7.844;2023-02-28T05:26:18;0.93;;;0.70;;
55417;SDS011;41287;47.554;7.844;2023-02-28T05:28:44;0.70;;;0.70;;
55417;SDS011;41287;47.554;7.844;2023-02-28T05:31:10;0.90;;;0.70;;
55417;SDS011;41287;47.554;7.844;2023-02-28T05:33:36;0.60;;;0.52;;
55417;SDS011;41287;47.554;7.844;2023-02-28T05:36:01;1.30;;;0.50;;
55417;SDS011;41287;47.554;7.844;2023-02-28T05:38:27;0.70;;;0.60;;
55417;SDS011;41287;47.554;7.844;2023-02-28T05:40:54;0.80;;;0.60;;
55417;SDS011;41287;47.554;7.844;2023-02-28T05:43:21;0.60;;;0.57;;
55417;SDS011;41287;47.554;7.844;2023-02-28T05:45:46;0.73;;;0.60;;
55417;SDS011;41287;47.554;7.844;2023-02-28T05:48:12;0.80;;;0.70;;
55417;SDS011;41287;47.554;7.844;2023-02-28T05:50:37;0.50;;;0.50;;
55417;SDS011;41287;47.554;7.844;2023-02-28T05:53:02;0.77;;;0.60;;
55417;SDS011;41287;47.554;7.844;2023-02-28T05:55:28;1.00;;;0.73;;
55417;SDS011;41287;47.554;7.844;2023-02-28T05:57:53;1.00;;;0.73;;
55417;SDS011;41287;47.554;7.844;2023-02-28T06:00:19;0.82;;;0.70;;
55417;SDS011;41287;47.554;7.844;2023-02-28T06:02:45;0.60;;;0.60;;
55417;SDS011;41287;47.554;7.844;2023-02-28T06:05:14;1.25;;;0.73;;
55417;SDS011;41287;47.554;7.844;2023-02-28T06:07:41;0.75;;;0.60;;
55417;SDS011;41287;47.554;7.844;2023-02-28T06:10:08;0.85;;;0.68;;
55417;SDS011;41287;47.554;7.844;2023-02-28T06:12:34;0.85;;;0.60;;
55417;SDS011;41287;47.554;7.844;2023-02-28T06:15:00;0.73;;;0.70;;
55417;SDS011;41287;47.554;7.844;2023-02-28T06:17:28;0.82;;;0.50;;
55417;SDS011;41287;47.554;7.844;2023-02-28T06:19:53;0.95;;;0.70;;
55417;SDS011;41287;47.554;7.844;2023-02-28T06:22:18;0.60;;;0.60;;
55417;SDS011;41287;47.554;7.844;2023-02-28T06:24:46;1.42;;;0.70;;
55417;SDS011;41287;47.554;7.844;2023-02-28T06:27:11;1.20;;;0.50;;
55417;SDS011;41287;47.554;7.844;2023-02-28T06:29:37;0.70;;;0.70;;
55417;SDS011;41287;47.554;7.844;2023-02-28T06:32:04;0.68;;;0.60;;
55417;SDS011;41287;47.554;7.844;2023-02-28T06:34:32;0.88;;;0.80;;
55417;SDS011;41287;47.554;7.844;2023-02-28T06:36:58;0.80;;;0.60;;
55417;SDS011;41287;47.554;7.844;2023-02-28T06:39:27;0.75;;;0.55;;
55417;SDS011;41287;47.554;7.844;2023-02-28T06:41:53;0.80;;;0.60;;
55417;SDS011;41287;47.554;7.844;2023-02-28T06:44:18;0.60;;;0.60;;
55417;SDS011;41287;47.554;7.844;2023-02-28T06:46:44;0.65;;;0.65;;
55417;SDS011;41287;47.554;7.844;2023-02-28T06:49:11;0.60;;;0.60;;
55417;SDS011;41287;47.554;7.844;2023-02-28T06:51:41;0.70;;;0.60;;
55417;SDS011;41287;47.554;7.844;2023-02-28T06:54:10;0.80;;;0.70;;
55417;SDS011;41287;47.554;7.844;2023-02-28T06:56:36;0.93;;;0.55;;
55417;SDS011;41287;47.554;7.844;2023-02-28T06:59:04;0.60;;;0.55;;
55417;SDS011;41287;47.554;7.844;2023-02-28T07:01:29;0.75;;;0.60;;
55417;SDS011;41287;47.554;7.844;2023-02-28T07:03:56;1.02;;;0.50;;
55417;SDS011;41287;47.554;7.844;2023-02-28T07:06:25;0.65;;;0.60;;
55417;SDS011;41287;47.554;7.844;2023-02-28T07:08:53;0.70;;;0.60;;
55417;SDS011;41287;47.554;7.844;2023-02-28T07:11:19;0.73;;;0.50;;
55417;SDS011;41287;47.554;7.844;2023-02-28T07:13:47;0.60;;;0.60;;
55417;SDS011;41287;47.554;7.844;2023-02-28T07:16:13;0.60;;;0.60;;
55417;SDS011;41287;47.554;7.844;2023-02-28T07:18:39;1.00;;;0.80;;
55417;SDS011;41287;47.554;7.844;2023-02-28T07:21:05;0.70;;;0.70;;
55417;SDS011;41287;47.554;7.844;2023-02-28T07:23:34;0.88;;;0.70;;
55417;SDS011;41287;47.554;7.844;2023-02-28T07:26:06;0.85;;;0.60;;
55417;SDS011;41287;47.554;7.844;2023-02-28T07:28:33;0.82;;;0.63;;
55417;SDS011;41287;47.554;7.844;2023-02-28T07:31:05;0.52;;;0.52;;
55417;SDS011;41287;47.554;7.844;2023-02-28T07:33:30;1.30;;;0.70;;
55417;SDS011;41287;47.554;7.844;2023-02-28T07:36:09;0.85;;;0.80;;
55417;SDS011;41287;47.554;7.844;2023-02-28T07:38:40;0.70;;;0.70;;
55417;SDS011;41287;47.554;7.844;2023-02-28T07:41:08;1.20;;;0.85;;
55417;SDS011;41287;47.554;7.844;2023-02-28T07:43:34;0.88;;;0.70;;
55417;SDS011;41287;47.554;7.844;2023-02-28T07:46:01;0.57;;;0.57;;
55417;SDS011;41287;47.554;7.844;2023-02-28T07:48:31;0.98;;;0.90;;
55417;SDS011;41287;47.554;7.844;2023-02-28T07:50:57;1.00;;;0.90;;
55417;SDS011;41287;47.554;7.844;2023-02-28T07:53:23;1.88;;;1.55;;
55417;SDS011;41287;47.554;7.844;2023-02-28T07:55:49;1.55;;;1.30;;
55417;SDS011;41287;47.554;7.844;2023-02-28T07:58:19;2.00;;;1.48;;
55417;SDS011;41287;47.554;7.844;2023-02-28T08:00:44;1.70;;;1.40;;
55417;SDS011;41287;47.554;7.844;2023-02-28T08:03:13;2.63;;;1.30;;
55417;SDS011;41287;47.554;7.844;2023-02-28T08:05:39;1.77;;;1.30;;
55417;SDS011;41287;47.554;7.844;2023-02-28T08:08:05;1.77;;;1.17;;
55417;SDS011;41287;47.554;7.844;2023-02-28T08:10:31;2.15;;;1.23;;
55417;SDS011;41287;47.554;7.844;2023-02-28T08:12:57;1.85;;;1.20;;
55417;SDS011;41287;47.554;7.844;2023-02-28T08:15:25;3.13;;;1.60;;
55417;SDS011;41287;47.554;7.844;2023-02-28T08:17:50;1.58;;;1.27;;
55417;SDS011;41287;47.554;7.844;2023-02-28T08:20:15;1.77;;;1.27;;
55417;SDS011;41287;47.554;7.844;2023-02-28T08:22:41;1.83;;;1.25;;
55417;SDS011;41287;47.554;7.844;2023-02-28T08:25:07;1.75;;;1.20;;
55417;SDS011;41287;47.554;7.844;2023-02-28T08:27:33;1.92;;;1.27;;
55417;SDS011;41287;47.554;7.844;2023-02-28T08:30:01;1.80;;;1.00;;
55417;SDS011;41287;47.554;7.844;2023-02-28T08:32:28;1.60;;;1.17;;
55417;SDS011;41287;47.554;7.844;2023-02-28T08:34:53;1.70;;;1.10;;
55417;SDS011;41287;47.554;7.844;2023-02-28T08:37:20;1.33;;;1.20;;
55417;SDS011;41287;47.554;7.844;2023-02-28T08:39:46;1.60;;;1.17;;
55417;SDS011;41287;47.554;7.844;2023-02-28T08:42:11;1.75;;;1.02;;
55417;SDS011;41287;47.554;7.844;2023-02-28T08:44:37;1.55;;;1.10;;
55417;SDS011;41287;47.554;7.844;2023-02-28T08:47:02;2.15;;;1.00;;
55417;SDS011;41287;47.554;7.844;2023-02-28T08:49:28;1.55;;;1.05;;
55417;SDS011;41287;47.554;7.844;2023-02-28T08:51:53;1.58;;;1.00;;
55417;SDS011;41287;47.554;7.844;2023-02-28T08:54:20;1.70;;;1.13;;
55417;SDS011;41287;47.554;7.844;2023-02-28T08:56:46;2.15;;;1.10;;
55417;SDS011;41287;47.554;7.844;2023-02-28T08:59:12;1.58;;;0.90;;
55417;SDS011;41287;47.554;7.844;2023-02-28T09:01:38;1.55;;;1.10;;
55417;SDS011;41287;47.554;7.844;2023-02-28T09:04:08;1.77;;;1.00;;
55417;SDS011;41287;47.554;7.844;2023-02-28T09:06:36;1.45;;;1.08;;
55417;SDS011;41287;47.554;7.844;2023-02-28T09:09:02;1.60;;;1.10;;
55417;SDS011;41287;47.554;7.844;2023-02-28T09:11:30;0.90;;;0.88;;
55417;SDS011;41287;47.554;7.844;2023-02-28T09:13:59;1.25;;;1.08;;
55417;SDS011;41287;47.554;7.844;2023-02-28T09:16:25;2.10;;;1.20;;
55417;SDS011;41287;47.554;7.844;2023-02-28T09:18:51;1.67;;;1.25;;
55417;SDS011;41287;47.554;7.844;2023-02-28T09:21:18;1.27;;;1.05;;
55417;SDS011;41287;47.554;7.844;2023-02-28T09:23:44;1.17;;;0.98;;
55417;SDS011;41287;47.554;7.844;2023-02-28T09:26:15;1.30;;;1.10;;
55417;SDS011;41287;47.554;7.844;2023-02-28T09:28:42;1.50;;;1.02;;
55417;SDS011;41287;47.554;7.844;2023-02-28T09:31:12;1.65;;;1.13;;
55417;SDS011;41287;47.554;7.844;2023-02-28T09:33:40;1.20;;;0.90;;
55417;SDS011;41287;47.554;7.844;2023-02-28T09:36:06;1.63;;;0.90;;
55417;SDS011;41287;47.554;7.844;2023-02-28T09:38:31;1.58;;;0.90;;
55417;SDS011;41287;47.554;7.844;2023-02-28T09:40:58;1.58;;;1.08;;
55417;SDS011;41287;47.554;7.844;2023-02-28T09:43:27;1.17;;;0.82;;
55417;SDS011;41287;47.554;7.844;2023-02-28T09:46:05;0.95;;;0.85;;
55417;SDS011;41287;47.554;7.844;2023-02-28T09:48:39;1.10;;;0.93;;
55417;SDS011;41287;47.554;7.844;2023-02-28T09:51:13;1.80;;;0.90;;
55417;SDS011;41287;47.554;7.844;2023-02-28T09:53:50;1.10;;;0.80;;
55417;SDS011;41287;47.554;7.844;2023-02-28T09:56:37;1.13;;;0.90;;
55417;SDS011;41287;47.554;7.844;2023-02-28T10:07:14;1.58;;;0.90;;
55417;SDS011;41287;47.554;7.844;2023-02-28T10:09:47;1.23;;;0.90;;
55417;SDS011;41287;47.554;7.844;2023-02-28T10:12:17;1.45;;;1.05;;
55417;SDS011;41287;47.554;7.844;2023-02-28T10:14:45;1.60;;;1.02;;
55417;SDS011;41287;47.554;7.844;2023-02-28T10:17:15;1.00;;;0.77;;
55417;SDS011;41287;47.554;7.844;2023-02-28T10:19:55;1.08;;;0.90;;
55417;SDS011;41287;47.554;7.844;2023-02-28T10:22:38;2.03;;;1.02;;
55417;SDS011;41287;47.554;7.844;2023-02-28T10:25:23;1.30;;;0.80;;
55417;SDS011;41287;47.554;7.844;2023-02-28T10:27:54;1.33;;;0.90;;
55417;SDS011;41287;47.554;7.844;2023-02-28T10:30:34;1.50;;;0.90;;
55417;SDS011;41287;47.554;7.844;2023-02-28T10:33:02;1.95;;;0.85;;
55417;SDS011;41287;47.554;7.844;2023-02-28T10:35:27;1.17;;;0.95;;
55417;SDS011;41287;47.554;7.844;2023-02-28T10:37:57;1.00;;;0.80;;
55417;SDS011;41287;47.554;7.844;2023-02-28T10:45:40;1.55;;;0.80;;
55417;SDS011;41287;47.554;7.844;2023-02-28T11:04:00;1.38;;;1.10;;
55417;SDS011;41287;47.554;7.844;2023-02-28T11:06:26;1.35;;;0.88;;
55417;SDS011;41287;47.554;7.844;2023-02-28T11:08:56;0.75;;;0.65;;
55417;SDS011;41287;47.554;7.844;2023-02-28T11:11:25;1.60;;;0.90;;
55417;SDS011;41287;47.554;7.844;2023-02-28T11:13:54;1.55;;;0.95;;
55417;SDS011;41287;47.554;7.844;2023-02-28T11:16:32;1.67;;;1.10;;
55417;SDS011;41287;47.554;7.844;2023-02-28T11:19:02;1.27;;;0.88;;
55417;SDS011;41287;47.554;7.844;2023-02-28T11:21:35;1.02;;;0.88;;
55417;SDS011;41287;47.554;7.844;2023-02-28T11:26:44;1.13;;;0.80;;
55417;SDS011;41287;47.554;7.844;2023-02-28T11:29:19;1.05;;;0.82;;
55417;SDS011;41287;47.554;7.844;2023-02-28T11:32:00;0.80;;;0.80;;
55417;SDS011;41287;47.554;7.844;2023-02-28T11:34:43;0.98;;;0.70;;
55417;SDS011;41287;47.554;7.844;2023-02-28T11:37:14;1.00;;;0.77;;
55417;SDS011;41287;47.554;7.844;2023-02-28T11:39:43;0.97;;;0.83;;
55417;SDS011;41287;47.554;7.844;2023-02-28T11:45:43;0.90;;;0.80;;
55417;SDS011;41287;47.554;7.844;2023-02-28T11:48:20;2.15;;;1.10;;
55417;SDS011;41287;47.554;7.844;2023-02-28T11:50:54;1.08;;;0.80;;
55417;SDS011;41287;47.554;7.844;2023-02-28T12:10:26;0.93;;;0.77;;
55417;SDS011;41287;47.554;7.844;2023-02-28T12:19:09;1.25;;;0.90;;
55417;SDS011;41287;47.554;7.844;2023-02-28T12:27:25;1.00;;;0.90;;
55417;SDS011;41287;47.554;7.844;2023-02-28T12:29:56;1.30;;;0.85;;
55417;SDS011;41287;47.554;7.844;2023-02-28T12:32:30;1.23;;;0.90;;
55417;SDS011;41287;47.554;7.844;2023-02-28T12:35:01;1.05;;;0.80;;
55417;SDS011;41287;47.554;7.844;2023-02-28T12:37:34;0.75;;;0.75;;
55417;SDS011;41287;47.554;7.844;2023-02-28T12:40:06;0.65;;;0.65;;
55417;SDS011;41287;47.554;7.844;2023-02-28T12:42:39;1.85;;;1.10;;
55417;SDS011;41287;47.554;7.844;2023-02-28T12:45:13;0.80;;;0.70;;
55417;SDS011;41287;47.554;7.844;2023-02-28T12:47:44;1.10;;;0.80;;
55417;SDS011;41287;47.554;7.844;2023-02-28T12:50:13;1.40;;;0.80;;
55417;SDS011;41287;47.554;7.844;2023-02-28T12:55:35;1.00;;;0.85;;
55417;SDS011;41287;47.554;7.844;2023-02-28T12:58:13;1.85;;;0.90;;
55417;SDS011;41287;47.554;7.844;2023-02-28T13:00:49;1.00;;;0.82;;
55417;SDS011;41287;47.554;7.844;2023-02-28T13:03:52;1.17;;;0.90;;
55417;SDS011;41287;47.554;7.844;2023-02-28T13:09:32;0.80;;;0.70;;
55417;SDS011;41287;47.554;7.844;2023-02-28T13:11:58;0.82;;;0.82;;
55417;SDS011;41287;47.554;7.844;2023-02-28T13:14:35;1.05;;;0.82;;
55417;SDS011;41287;47.554;7.844;2023-02-28T13:19:37;1.52;;;0.80;;
55417;SDS011;41287;47.554;7.844;2023-02-28T13:22:35;0.88;;;0.70;;
55417;SDS011;41287;47.554;7.844;2023-02-28T13:27:47;1.00;;;0.77;;
55417;SDS011;41287;47.554;7.844;2023-02-28T13:35:50;1.35;;;0.88;;
55417;SDS011;41287;47.554;7.844;2023-02-28T13:38:32;0.93;;;0.77;;
55417;SDS011;41287;47.554;7.844;2023-02-28T13:52:11;1.42;;;1.05;;
55417;SDS011;41287;47.554;7.844;2023-02-28T13:57:39;0.93;;;0.80;;
55417;SDS011;41287;47.554;7.844;2023-02-28T14:03:22;1.20;;;0.88;;
55417;SDS011;41287;47.554;7.844;2023-02-28T14:12:50;1.33;;;0.82;;
55417;SDS011;41287;47.554;7.844;2023-02-28T14:15:04;1.27;;;0.80;;
55417;SDS011;41287;47.554;7.844;2023-02-28T14:20:43;0.80;;;0.70;;
55417;SDS011;41287;47.554;7.844;2023-02-28T14:26:00;0.77;;;0.63;;
55417;SDS011;41287;47.554;7.844;2023-02-28T14:31:22;0.73;;;0.70;;
55417;SDS011;41287;47.554;7.844;2023-02-28T14:33:59;0.65;;;0.60;;
55417;SDS011;41287;47.554;7.844;2023-02-28T14:36:39;1.08;;;0.75;;
55417;SDS011;41287;47.554;7.844;2023-02-28T14:39:10;0.95;;;0.85;;
55417;SDS011;41287;47.554;7.844;2023-02-28T14:41:39;1.05;;;0.80;;
55417;SDS011;41287;47.554;7.844;2023-02-28T14:44:23;1.00;;;0.90;;
55417;SDS011;41287;47.554;7.844;2023-02-28T14:46:57;1.08;;;0.93;;
55417;SDS011;41287;47.554;7.844;2023-02-28T14:49:34;0.90;;;0.70;;
55417;SDS011;41287;47.554;7.844;2023-02-28T14:52:03;1.25;;;1.00;;
55417;SDS011;41287;47.554;7.844;2023-02-28T14:54:35;1.17;;;1.00;;
55417;SDS011;41287;47.554;7.844;2023-02-28T14:57:01;1.05;;;0.90;;
55417;SDS011;41287;47.554;7.844;2023-02-28T14:59:34;1.17;;;0.90;;
55417;SDS011;41287;47.554;7.844;2023-02-28T15:04:53;1.23;;;0.80;;
55417;SDS011;41287;47.554;7.844;2023-02-28T15:09:45;1.00;;;0.73;;
55417;SDS011;41287;47.554;7.844;2023-02-28T15:12:13;1.20;;;0.73;;
55417;SDS011;41287;47.554;7.844;2023-02-28T15:14:42;1.20;;;0.80;;
55417;SDS011;41287;47.554;7.844;2023-02-28T15:17:11;1.02;;;0.88;;
55417;SDS011;41287;47.554;7.844;2023-02-28T15:19:45;0.98;;;0.80;;
55417;SDS011;41287;47.554;7.844;2023-02-28T15:22:17;0.90;;;0.73;;
55417;SDS011;41287;47.554;7.844;2023-02-28T15:24:46;0.80;;;0.70;;
55417;SDS011;41287;47.554;7.844;2023-02-28T15:27:16;0.75;;;0.60;;
55417;SDS011;41287;47.554;7.844;2023-02-28T15:29:48;1.00;;;0.80;;
55417;SDS011;41287;47.554;7.844;2023-02-28T15:34:57;0.60;;;0.60;;
55417;SDS011;41287;47.554;7.844;2023-02-28T15:37:41;0.60;;;0.50;;
55417;SDS011;41287;47.554;7.844;2023-02-28T15:40:26;0.82;;;0.73;;
55417;SDS011;41287;47.554;7.844;2023-02-28T15:45:45;0.75;;;0.70;;
55417;SDS011;41287;47.554;7.844;2023-02-28T15:50:49;1.45;;;0.80;;
55417;SDS011;41287;47.554;7.844;2023-02-28T15:53:19;0.82;;;0.70;;
55417;SDS011;41287;47.554;7.844;2023-02-28T15:55:54;0.70;;;0.70;;
55417;SDS011;41287;47.554;7.844;2023-02-28T15:58:24;1.70;;;1.08;;
55417;SDS011;41287;47.554;7.844;2023-02-28T16:01:00;1.00;;;0.88;;
55417;SDS011;41287;47.554;7.844;2023-02-28T16:03:48;0.98;;;0.80;;
55417;SDS011;41287;47.554;7.844;2023-02-28T16:06:24;1.35;;;0.90;;
55417;SDS011;41287;47.554;7.844;2023-02-28T16:08:56;0.80;;;0.80;;
55417;SDS011;41287;47.554;7.844;2023-02-28T16:11:23;1.05;;;0.80;;
55417;SDS011;41287;47.554;7.844;2023-02-28T16:13:49;1.40;;;1.00;;
55417;SDS011;41287;47.554;7.844;2023-02-28T16:16:18;1.50;;;1.00;;
55417;SDS011;41287;47.554;7.844;2023-02-28T16:18:45;1.92;;;1.40;;
55417;SDS011;41287;47.554;7.844;2023-02-28T16:21:11;2.13;;;1.73;;
55417;SDS011;41287;47.554;7.844;2023-02-28T16:23:38;3.72;;;2.20;;
55417;SDS011;41287;47.554;7.844;2023-02-28T16:26:04;3.47;;;2.65;;
55417;SDS011;41287;47.554;7.844;2023-02-28T16:28:32;3.45;;;2.50;;
55417;SDS011;41287;47.554;7.844;2023-02-28T16:30:59;3.70;;;2.95;;
55417;SDS011;41287;47.554;7.844;2023-02-28T16:33:27;5.72;;;3.40;;
55417;SDS011;41287;47.554;7.844;2023-02-28T16:35:53;3.75;;;3.10;;
55417;SDS011;41287;47.554;7.844;2023-02-28T16:38:20;5.30;;;3.13;;
55417;SDS011;41287;47.554;7.844;2023-02-28T16:40:48;4.38;;;3.20;;
55417;SDS011;41287;47.554;7.844;2023-02-28T16:43:15;3.63;;;2.90;;
55417;SDS011;41287;47.554;7.844;2023-02-28T16:45:46;4.80;;;3.35;;
55417;SDS011;41287;47.554;7.844;2023-02-28T16:48:13;4.18;;;3.00;;
55417;SDS011;41287;47.554;7.844;2023-02-28T16:50:39;5.15;;;2.88;;
55417;SDS011;41287;47.554;7.844;2023-02-28T16:53:05;4.10;;;2.85;;
55417;SDS011;41287;47.554;7.844;2023-02-28T16:55:35;3.85;;;2.78;;
55417;SDS011;41287;47.554;7.844;2023-02-28T16:58:00;3.72;;;2.70;;
55417;SDS011;41287;47.554;7.844;2023-02-28T17:00:28;3.88;;;2.80;;
55417;SDS011;41287;47.554;7.844;2023-02-28T17:02:55;5.40;;;2.90;;
55417;SDS011;41287;47.554;7.844;2023-02-28T17:05:21;4.05;;;2.85;;
55417;SDS011;41287;47.554;7.844;2023-02-28T17:07:47;4.90;;;2.83;;
55417;SDS011;41287;47.554;7.844;2023-02-28T17:10:24;3.53;;;2.50;;
55417;SDS011;41287;47.554;7.844;2023-02-28T17:12:51;3.00;;;2.38;;
55417;SDS011;41287;47.554;7.844;2023-02-28T17:15:17;3.53;;;2.75;;
55417;SDS011;41287;47.554;7.844;2023-02-28T17:17:44;2.55;;;2.03;;
55417;SDS011;41287;47.554;7.844;2023-02-28T17:20:13;3.67;;;2.63;;
55417;SDS011;41287;47.554;7.844;2023-02-28T17:22:43;3.10;;;2.30;;
55417;SDS011;41287;47.554;7.844;2023-02-28T17:25:09;2.67;;;1.98;;